sensor_id;sensor_type;location;lat;lon;timestamp;pressure;altitude;pressure_sealevel;temperature;humidity
12666;BME280;58531;59.050;17.416;2022-10-03T00:01:46;100570.47;;;6.81;100.00
12666;BME280;58531;59.050;17.416;2022-10-03T00:04:27;100578.31;;;6.88;100.00
12666;BME280;58531;59.050;17.416;2022-10-03T00:07:03;100575.03;;;6.80;100.00
12666;BME280;58531;59.050;17.416;2022-10-03T00:09:50;100580.81;;;6.75;100.00
12666;BME280;58531;59.050;17.416;2022-10-03T00:12:36;100580.53;;;6.70;100.00
12666;BME280;58531;59.050;17.416;2022-10-03T00:15:13;100584.00;;;6.67;100.00
12666;BME280;58531;59.050;17.416;2022-10-03T00:17:49;100590.75;;;6.71;100.00
12666;BME280;58531;59.050;17.416;2022-10-03T00:20:34;100590.00;;;6.71;100.00
12666;BME280;58531;59.050;17.416;2022-10-03T00:23:08;100592.66;;;6.71;100.00
12666;BME280;58531;59.050;17.416;2022-10-03T00:25:43;100591.84;;;6.74;100.00
12666;BME280;58531;59.050;17.416;2022-10-03T00:28:20;100591.28;;;6.82;100.00
12666;BME280;58531;59.050;17.416;2022-10-03T00:31:07;100589.22;;;6.90;100.00
12666;BME280;58531;59.050;17.416;2022-10-03T00:33:46;100590.94;;;6.99;100.00
12666;BME280;58531;59.050;17.416;2022-10-03T00:36:20;100596.84;;;7.07;100.00
12666;BME280;58531;59.050;17.416;2022-10-03T00:39:16;100595.47;;;7.18;100.00
12666;BME280;58531;59.050;17.416;2022-10-03T00:42:29;100602.47;;;7.28;100.00
12666;BME280;58531;59.050;17.416;2022-10-03T00:48:47;100599.56;;;7.39;100.00
12666;BME280;58531;59.050;17.416;2022-10-03T00:51:33;100608.94;;;7.43;100.00
12666;BME280;58531;59.050;17.416;2022-10-03T00:54:18;100618.03;;;7.46;100.00
12666;BME280;58531;59.050;17.416;2022-10-03T00:57:00;100616.03;;;7.50;100.00
12666;BME280;58531;59.050;17.416;2022-10-03T00:59:53;100616.78;;;7.50;100.00
12666;BME280;58531;59.050;17.416;2022-10-03T01:02:47;100619.09;;;7.48;100.00
12666;BME280;58531;59.050;17.416;2022-10-03T01:05:28;100620.09;;;7.54;100.00
12666;BME280;58531;59.050;17.416;2022-10-03T01:08:49;100618.38;;;7.64;100.00
12666;BME280;58531;59.050;17.416;2022-10-03T01:11:30;100623.84;;;7.73;100.00
12666;BME280;58531;59.050;17.416;2022-10-03T01:14:21;100626.78;;;7.78;100.00
12666;BME280;58531;59.050;17.416;2022-10-03T01:17:02;100626.69;;;7.82;100.00
12666;BME280;58531;59.050;17.416;2022-10-03T01:19:56;100626.94;;;7.87;100.00
12666;BME280;58531;59.050;17.416;2022-10-03T01:22:49;100634.09;;;7.90;100.00
12666;BME280;58531;59.050;17.416;2022-10-03T01:25:30;100632.91;;;7.91;100.00
12666;BME280;58531;59.050;17.416;2022-10-03T01:28:18;100637.41;;;7.94;100.00
12666;BME280;58531;59.050;17.416;2022-10-03T01:31:09;100640.00;;;7.98;100.00
12666;BME280;58531;59.050;17.416;2022-10-03T01:33:41;100640.47;;;7.93;100.00
12666;BME280;58531;59.050;17.416;2022-10-03T01:36:14;100642.38;;;7.92;100.00
12666;BME280;58531;59.050;17.416;2022-10-03T01:38:48;100645.38;;;7.94;100.00
12666;BME280;58531;59.050;17.416;2022-10-03T01:41:25;100639.91;;;8.01;100.00
12666;BME280;58531;59.050;17.416;2022-10-03T01:44:00;100636.72;;;8.06;100.00
12666;BME280;58531;59.050;17.416;2022-10-03T01:46:37;100649.53;;;8.11;100.00
12666;BME280;58531;59.050;17.416;2022-10-03T01:49:10;100651.38;;;8.14;100.00
12666;BME280;58531;59.050;17.416;2022-10-03T01:51:44;100646.38;;;8.16;100.00
12666;BME280;58531;59.050;17.416;2022-10-03T01:54:18;100652.38;;;8.20;100.00
12666;BME280;58531;59.050;17.416;2022-10-03T01:56:53;100655.38;;;8.22;100.00
12666;BME280;58531;59.050;17.416;2022-10-03T01:59:30;100659.22;;;8.21;100.00
12666;BME280;58531;59.050;17.416;2022-10-03T02:02:05;100663.69;;;8.24;100.00
12666;BME280;58531;59.050;17.416;2022-10-03T02:04:40;100663.19;;;8.29;100.00
12666;BME280;58531;59.050;17.416;2022-10-03T02:07:16;100675.66;;;8.32;100.00
12666;BME280;58531;59.050;17.416;2022-10-03T02:09:56;100671.84;;;8.33;100.00
12666;BME280;58531;59.050;17.416;2022-10-03T02:12:30;100674.84;;;8.35;100.00
12666;BME280;58531;59.050;17.416;2022-10-03T02:15:07;100675.22;;;8.33;100.00
12666;BME280;58531;59.050;17.416;2022-10-03T02:17:47;100678.91;;;8.23;100.00
12666;BME280;58531;59.050;17.416;2022-10-03T02:20:23;100679.81;;;8.17;100.00
12666;BME280;58531;59.050;17.416;2022-10-03T02:22:53;100682.72;;;8.07;100.00
12666;BME280;58531;59.050;17.416;2022-10-03T02:25:25;100678.78;;;7.95;100.00
12666;BME280;58531;59.050;17.416;2022-10-03T02:31:21;100681.97;;;7.90;100.00
12666;BME280;58531;59.050;17.416;2022-10-03T02:37:18;100688.25;;;7.96;100.00
12666;BME280;58531;59.050;17.416;2022-10-03T02:43:26;100688.09;;;8.03;100.00
12666;BME280;58531;59.050;17.416;2022-10-03T02:49:34;100693.06;;;8.01;100.00
12666;BME280;58531;59.050;17.416;2022-10-03T02:52:29;100688.91;;;8.00;100.00
12666;BME280;58531;59.050;17.416;2022-10-03T02:58:33;100686.19;;;8.04;100.00
12666;BME280;58531;59.050;17.416;2022-10-03T03:04:48;100685.78;;;8.05;100.00
12666;BME280;58531;59.050;17.416;2022-10-03T03:07:43;100692.25;;;8.04;100.00
12666;BME280;58531;59.050;17.416;2022-10-03T03:10:47;100694.50;;;8.06;100.00
12666;BME280;58531;59.050;17.416;2022-10-03T03:13:48;100704.47;;;8.02;100.00
12666;BME280;58531;59.050;17.416;2022-10-03T03:16:44;100706.72;;;8.03;100.00
12666;BME280;58531;59.050;17.416;2022-10-03T03:19:25;100698.06;;;7.99;100.00
12666;BME280;58531;59.050;17.416;2022-10-03T03:22:05;100698.41;;;8.01;100.00
12666;BME280;58531;59.050;17.416;2022-10-03T03:24:51;100703.31;;;8.03;100.00
12666;BME280;58531;59.050;17.416;2022-10-03T03:27:37;100700.22;;;8.04;100.00
12666;BME280;58531;59.050;17.416;2022-10-03T03:30:10;100698.00;;;8.03;100.00
12666;BME280;58531;59.050;17.416;2022-10-03T03:32:51;100698.34;;;8.05;100.00
12666;BME280;58531;59.050;17.416;2022-10-03T03:35:30;100704.38;;;8.05;100.00
12666;BME280;58531;59.050;17.416;2022-10-03T03:38:13;100701.38;;;8.03;100.00
12666;BME280;58531;59.050;17.416;2022-10-03T03:41:00;100714.34;;;8.01;100.00
12666;BME280;58531;59.050;17.416;2022-10-03T03:43:46;100712.47;;;8.02;100.00
12666;BME280;58531;59.050;17.416;2022-10-03T03:46:32;100718.94;;;8.01;100.00
12666;BME280;58531;59.050;17.416;2022-10-03T03:49:12;100725.91;;;7.95;100.00
12666;BME280;58531;59.050;17.416;2022-10-03T03:51:54;100722.91;;;7.93;100.00
12666;BME280;58531;59.050;17.416;2022-10-03T03:54:46;100719.81;;;7.94;100.00
12666;BME280;58531;59.050;17.416;2022-10-03T03:57:48;100728.97;;;7.93;100.00
12666;BME280;58531;59.050;17.416;2022-10-03T04:00:19;100722.16;;;7.92;100.00
12666;BME280;58531;59.050;17.416;2022-10-03T04:03:06;100727.56;;;7.89;100.00
12666;BME280;58531;59.050;17.416;2022-10-03T04:05:50;100726.06;;;7.88;100.00
12666;BME280;58531;59.050;17.416;2022-10-03T04:08:31;100721.16;;;7.86;100.00
12666;BME280;58531;59.050;17.416;2022-10-03T04:11:15;100723.84;;;7.86;100.00
12666;BME280;58531;59.050;17.416;2022-10-03T04:13:59;100722.00;;;7.83;100.00
12666;BME280;58531;59.050;17.416;2022-10-03T04:16:46;100720.97;;;7.77;100.00
12666;BME280;58531;59.050;17.416;2022-10-03T04:19:43;100732.09;;;7.72;100.00
12666;BME280;58531;59.050;17.416;2022-10-03T04:22:24;100734.09;;;7.68;100.00
12666;BME280;58531;59.050;17.416;2022-10-03T04:27:58;100737.38;;;7.56;100.00
12666;BME280;58531;59.050;17.416;2022-10-03T04:30:38;100735.13;;;7.55;100.00
12666;BME280;58531;59.050;17.416;2022-10-03T04:33:20;100746.91;;;7.54;100.00
12666;BME280;58531;59.050;17.416;2022-10-03T04:36:30;100751.47;;;7.53;100.00
12666;BME280;58531;59.050;17.416;2022-10-03T04:39:08;100755.03;;;7.47;100.00
12666;BME280;58531;59.050;17.416;2022-10-03T04:41:42;100760.38;;;7.43;100.00
12666;BME280;58531;59.050;17.416;2022-10-03T04:44:31;100756.66;;;7.41;100.00
12666;BME280;58531;59.050;17.416;2022-10-03T04:47:05;100764.41;;;7.32;100.00
12666;BME280;58531;59.050;17.416;2022-10-03T04:49:37;100765.19;;;7.32;100.00
12666;BME280;58531;59.050;17.416;2022-10-03T04:52:16;100765.91;;;7.33;100.00
12666;BME280;58531;59.050;17.416;2022-10-03T04:54:51;100770.16;;;7.30;100.00
12666;BME280;58531;59.050;17.416;2022-10-03T04:57:29;100777.34;;;7.30;100.00
12666;BME280;58531;59.050;17.416;2022-10-03T05:00:04;100778.13;;;7.30;100.00
12666;BME280;58531;59.050;17.416;2022-10-03T05:02:45;100774.38;;;7.28;100.00
12666;BME280;58531;59.050;17.416;2022-10-03T05:08:33;100777.09;;;7.24;100.00
12666;BME280;58531;59.050;17.416;2022-10-03T05:11:09;100786.47;;;7.29;100.00
12666;BME280;58531;59.050;17.416;2022-10-03T05:13:48;100789.44;;;7.34;100.00
12666;BME280;58531;59.050;17.416;2022-10-03T05:16:28;100794.59;;;7.41;100.00
12666;BME280;58531;59.050;17.416;2022-10-03T05:19:18;100791.81;;;7.48;100.00
12666;BME280;58531;59.050;17.416;2022-10-03T05:21:54;100799.16;;;7.60;100.00
12666;BME280;58531;59.050;17.416;2022-10-03T05:24:30;100791.78;;;7.68;100.00
12666;BME280;58531;59.050;17.416;2022-10-03T05:27:10;100793.16;;;7.76;100.00
12666;BME280;58531;59.050;17.416;2022-10-03T05:29:50;100798.34;;;7.83;100.00
12666;BME280;58531;59.050;17.416;2022-10-03T05:32:27;100796.00;;;7.85;100.00
12666;BME280;58531;59.050;17.416;2022-10-03T05:38:03;100799.88;;;8.00;100.00
12666;BME280;58531;59.050;17.416;2022-10-03T05:40:36;100807.28;;;8.08;100.00
12666;BME280;58531;59.050;17.416;2022-10-03T05:43:17;100813.28;;;8.12;100.00
12666;BME280;58531;59.050;17.416;2022-10-03T05:45:55;100809.34;;;8.01;100.00
12666;BME280;58531;59.050;17.416;2022-10-03T05:48:32;100807.03;;;8.03;100.00
12666;BME280;58531;59.050;17.416;2022-10-03T05:51:20;100805.38;;;8.09;100.00
12666;BME280;58531;59.050;17.416;2022-10-03T05:54:31;100809.00;;;8.18;100.00
12666;BME280;58531;59.050;17.416;2022-10-03T05:57:50;100810.16;;;8.17;100.00
12666;BME280;58531;59.050;17.416;2022-10-03T06:00:30;100805.19;;;8.19;100.00
12666;BME280;58531;59.050;17.416;2022-10-03T06:03:26;100808.69;;;8.48;100.00
12666;BME280;58531;59.050;17.416;2022-10-03T06:06:09;100813.38;;;8.60;100.00
12666;BME280;58531;59.050;17.416;2022-10-03T06:11:54;100816.78;;;8.76;100.00
12666;BME280;58531;59.050;17.416;2022-10-03T06:17:46;100822.59;;;8.71;100.00
12666;BME280;58531;59.050;17.416;2022-10-03T06:26:36;100827.50;;;8.41;100.00
12666;BME280;58531;59.050;17.416;2022-10-03T06:29:41;100826.84;;;8.37;100.00
12666;BME280;58531;59.050;17.416;2022-10-03T06:32:46;100827.19;;;8.39;100.00
12666;BME280;58531;59.050;17.416;2022-10-03T06:35:44;100832.91;;;8.37;100.00
12666;BME280;58531;59.050;17.416;2022-10-03T06:44:31;100831.41;;;8.36;100.00
12666;BME280;58531;59.050;17.416;2022-10-03T06:47:23;100834.16;;;8.49;100.00
12666;BME280;58531;59.050;17.416;2022-10-03T06:50:17;100842.41;;;8.54;100.00
12666;BME280;58531;59.050;17.416;2022-10-03T06:52:56;100844.63;;;8.56;100.00
12666;BME280;58531;59.050;17.416;2022-10-03T07:02:02;100853.47;;;8.85;100.00
12666;BME280;58531;59.050;17.416;2022-10-03T07:11:04;100861.97;;;8.80;100.00
12666;BME280;58531;59.050;17.416;2022-10-03T07:23:14;100864.47;;;8.87;100.00
12666;BME280;58531;59.050;17.416;2022-10-03T07:26:14;100876.25;;;9.02;100.00
12666;BME280;58531;59.050;17.416;2022-10-03T07:29:17;100879.34;;;9.16;100.00
12666;BME280;58531;59.050;17.416;2022-10-03T07:32:04;100873.25;;;9.32;100.00
12666;BME280;58531;59.050;17.416;2022-10-03T07:37:47;100880.97;;;9.26;100.00
12666;BME280;58531;59.050;17.416;2022-10-03T07:40:55;100884.25;;;9.34;100.00
12666;BME280;58531;59.050;17.416;2022-10-03T07:43:50;100882.75;;;9.33;100.00
12666;BME280;58531;59.050;17.416;2022-10-03T07:46:45;100888.91;;;9.14;100.00
12666;BME280;58531;59.050;17.416;2022-10-03T07:52:50;100882.31;;;9.62;100.00
12666;BME280;58531;59.050;17.416;2022-10-03T07:55:27;100885.75;;;9.91;100.00
12666;BME280;58531;59.050;17.416;2022-10-03T07:58:13;100889.44;;;10.10;100.00
12666;BME280;58531;59.050;17.416;2022-10-03T08:01:07;100896.81;;;9.90;100.00
12666;BME280;58531;59.050;17.416;2022-10-03T08:03:54;100901.75;;;10.32;100.00
12666;BME280;58531;59.050;17.416;2022-10-03T08:06:33;100896.75;;;10.47;100.00
12666;BME280;58531;59.050;17.416;2022-10-03T08:12:36;100898.22;;;10.60;100.00
12666;BME280;58531;59.050;17.416;2022-10-03T08:15:09;100907.00;;;10.60;100.00
12666;BME280;58531;59.050;17.416;2022-10-03T08:18:19;100904.00;;;10.71;100.00
12666;BME280;58531;59.050;17.416;2022-10-03T08:20:52;100901.97;;;10.75;100.00
12666;BME280;58531;59.050;17.416;2022-10-03T08:23:50;100908.78;;;11.01;100.00
12666;BME280;58531;59.050;17.416;2022-10-03T08:26:42;100904.53;;;10.91;100.00
12666;BME280;58531;59.050;17.416;2022-10-03T08:29:38;100905.38;;;11.00;99.40
12666;BME280;58531;59.050;17.416;2022-10-03T08:35:33;100913.03;;;11.11;97.25
12666;BME280;58531;59.050;17.416;2022-10-03T08:38:29;100907.69;;;11.11;99.64
12666;BME280;58531;59.050;17.416;2022-10-03T08:41:31;100912.09;;;11.05;96.94
12666;BME280;58531;59.050;17.416;2022-10-03T08:44:34;100903.78;;;10.90;97.34
12666;BME280;58531;59.050;17.416;2022-10-03T08:47:30;100898.50;;;11.12;99.65
12666;BME280;58531;59.050;17.416;2022-10-03T08:50:18;100902.72;;;11.47;99.96
12666;BME280;58531;59.050;17.416;2022-10-03T08:53:11;100903.50;;;11.69;97.24
12666;BME280;58531;59.050;17.416;2022-10-03T08:55:48;100901.81;;;11.83;97.24
12666;BME280;58531;59.050;17.416;2022-10-03T09:01:43;100897.09;;;11.87;95.14
12666;BME280;58531;59.050;17.416;2022-10-03T09:05:09;100901.50;;;11.81;95.98
12666;BME280;58531;59.050;17.416;2022-10-03T09:17:13;100909.63;;;12.42;94.61
12666;BME280;58531;59.050;17.416;2022-10-03T09:26:10;100900.03;;;12.63;90.99
12666;BME280;58531;59.050;17.416;2022-10-03T09:28:57;100904.72;;;12.50;91.10
12666;BME280;58531;59.050;17.416;2022-10-03T09:32:01;100901.91;;;12.53;92.58
12666;BME280;58531;59.050;17.416;2022-10-03T09:34:58;100907.22;;;12.75;92.61
12666;BME280;58531;59.050;17.416;2022-10-03T09:37:45;100903.09;;;12.92;91.31
12666;BME280;58531;59.050;17.416;2022-10-03T09:40:54;100902.59;;;12.75;91.38
12666;BME280;58531;59.050;17.416;2022-10-03T09:43:50;100914.81;;;12.76;91.34
12666;BME280;58531;59.050;17.416;2022-10-03T09:46:56;100906.38;;;12.56;92.56
12666;BME280;58531;59.050;17.416;2022-10-03T09:50:15;100912.44;;;12.17;93.06
12666;BME280;58531;59.050;17.416;2022-10-03T09:56:03;100905.47;;;12.50;93.23
12666;BME280;58531;59.050;17.416;2022-10-03T09:58:46;100903.53;;;12.20;93.57
12666;BME280;58531;59.050;17.416;2022-10-03T10:01:27;100905.97;;;12.27;93.64
12666;BME280;58531;59.050;17.416;2022-10-03T10:04:18;100913.91;;;12.40;93.04
12666;BME280;58531;59.050;17.416;2022-10-03T10:13:15;100916.72;;;12.36;93.04
12666;BME280;58531;59.050;17.416;2022-10-03T10:16:07;100914.16;;;12.33;91.58
12666;BME280;58531;59.050;17.416;2022-10-03T10:25:28;100914.69;;;12.19;93.99
12666;BME280;58531;59.050;17.416;2022-10-03T10:50:27;100918.53;;;12.79;90.29
12666;BME280;58531;59.050;17.416;2022-10-03T10:56:41;100920.53;;;12.26;92.51
12666;BME280;58531;59.050;17.416;2022-10-03T11:05:47;100927.88;;;12.13;93.13
12666;BME280;58531;59.050;17.416;2022-10-03T11:08:49;100926.41;;;12.12;94.79
12666;BME280;58531;59.050;17.416;2022-10-03T11:18:15;100931.25;;;12.57;92.70
12666;BME280;58531;59.050;17.416;2022-10-03T11:24:21;100927.19;;;12.52;92.29
12666;BME280;58531;59.050;17.416;2022-10-03T11:30:13;100928.06;;;12.40;91.60
12666;BME280;58531;59.050;17.416;2022-10-03T11:38:55;100931.25;;;12.26;91.94
12666;BME280;58531;59.050;17.416;2022-10-03T11:41:38;100933.75;;;12.21;95.39
12666;BME280;58531;59.050;17.416;2022-10-03T11:44:13;100930.25;;;12.11;94.04
12666;BME280;58531;59.050;17.416;2022-10-03T11:47:01;100928.66;;;12.14;95.23
12666;BME280;58531;59.050;17.416;2022-10-03T11:50:10;100930.69;;;12.31;94.45
12666;BME280;58531;59.050;17.416;2022-10-03T11:52:53;100926.63;;;12.57;92.58
12666;BME280;58531;59.050;17.416;2022-10-03T11:55:29;100925.72;;;12.51;90.87
12666;BME280;58531;59.050;17.416;2022-10-03T11:58:12;100932.88;;;12.54;92.16
12666;BME280;58531;59.050;17.416;2022-10-03T12:00:45;100924.44;;;12.65;92.26
12666;BME280;58531;59.050;17.416;2022-10-03T12:03:21;100924.91;;;12.72;93.86
12666;BME280;58531;59.050;17.416;2022-10-03T12:05:54;100918.31;;;12.64;92.67
12666;BME280;58531;59.050;17.416;2022-10-03T12:08:50;100924.94;;;12.81;92.21
12666;BME280;58531;59.050;17.416;2022-10-03T12:11:24;100927.72;;;12.99;89.81
12666;BME280;58531;59.050;17.416;2022-10-03T12:14:23;100921.47;;;13.11;90.35
12666;BME280;58531;59.050;17.416;2022-10-03T12:17:04;100925.03;;;13.08;91.00
12666;BME280;58531;59.050;17.416;2022-10-03T12:19:38;100924.13;;;12.63;91.02
12666;BME280;58531;59.050;17.416;2022-10-03T12:22:20;100930.84;;;12.67;92.45
12666;BME280;58531;59.050;17.416;2022-10-03T12:24:52;100929.38;;;12.75;92.17
12666;BME280;58531;59.050;17.416;2022-10-03T12:27:39;100927.59;;;12.72;92.64
12666;BME280;58531;59.050;17.416;2022-10-03T12:30:13;100921.66;;;12.77;92.99
12666;BME280;58531;59.050;17.416;2022-10-03T12:32:48;100919.84;;;13.04;92.43
12666;BME280;58531;59.050;17.416;2022-10-03T12:35:37;100922.34;;;13.08;91.14
12666;BME280;58531;59.050;17.416;2022-10-03T12:38:23;100922.00;;;12.88;91.99
12666;BME280;58531;59.050;17.416;2022-10-03T12:40:59;100931.88;;;12.91;91.60
12666;BME280;58531;59.050;17.416;2022-10-03T12:43:40;100932.84;;;12.45;92.91
12666;BME280;58531;59.050;17.416;2022-10-03T12:46:15;100928.38;;;12.42;93.28
12666;BME280;58531;59.050;17.416;2022-10-03T12:48:46;100928.50;;;12.17;94.58
12666;BME280;58531;59.050;17.416;2022-10-03T12:51:29;100932.00;;;12.05;95.86
12666;BME280;58531;59.050;17.416;2022-10-03T12:54:07;100930.50;;;12.04;95.80
12666;BME280;58531;59.050;17.416;2022-10-03T12:56:43;100934.22;;;12.28;95.54
12666;BME280;58531;59.050;17.416;2022-10-03T12:59:18;100931.81;;;12.21;96.24
12666;BME280;58531;59.050;17.416;2022-10-03T13:02:16;100932.25;;;12.50;95.14
12666;BME280;58531;59.050;17.416;2022-10-03T13:04:58;100910.63;;;12.75;93.96
12666;BME280;58531;59.050;17.416;2022-10-03T13:07:37;100921.94;;;13.09;90.87
12666;BME280;58531;59.050;17.416;2022-10-03T13:10:14;100919.59;;;13.65;89.00
12666;BME280;58531;59.050;17.416;2022-10-03T13:12:48;100920.47;;;13.80;86.62
12666;BME280;58531;59.050;17.416;2022-10-03T13:15:42;100921.53;;;13.83;85.31
12666;BME280;58531;59.050;17.416;2022-10-03T13:18:32;100916.31;;;13.52;86.05
12666;BME280;58531;59.050;17.416;2022-10-03T13:21:05;100915.09;;;13.35;86.67
12666;BME280;58531;59.050;17.416;2022-10-03T13:23:43;100918.25;;;13.52;86.94
12666;BME280;58531;59.050;17.416;2022-10-03T13:26:15;100909.31;;;13.46;87.36
12666;BME280;58531;59.050;17.416;2022-10-03T13:29:08;100911.38;;;13.60;85.37
12666;BME280;58531;59.050;17.416;2022-10-03T13:31:48;100916.59;;;13.81;85.59
12666;BME280;58531;59.050;17.416;2022-10-03T13:34:23;100922.13;;;13.60;85.95
12666;BME280;58531;59.050;17.416;2022-10-03T13:36:54;100918.69;;;13.41;85.03
12666;BME280;58531;59.050;17.416;2022-10-03T13:39:24;100912.66;;;13.01;85.14
12666;BME280;58531;59.050;17.416;2022-10-03T13:42:04;100914.13;;;12.94;86.82
12666;BME280;58531;59.050;17.416;2022-10-03T13:44:36;100917.88;;;12.96;86.74
12666;BME280;58531;59.050;17.416;2022-10-03T13:47:16;100908.97;;;13.17;85.61
12666;BME280;58531;59.050;17.416;2022-10-03T13:49:52;100917.94;;;13.32;85.12
12666;BME280;58531;59.050;17.416;2022-10-03T13:52:27;100908.50;;;13.00;86.68
12666;BME280;58531;59.050;17.416;2022-10-03T13:55:17;100898.66;;;12.98;86.87
12666;BME280;58531;59.050;17.416;2022-10-03T13:58:00;100903.34;;;12.85;88.71
12666;BME280;58531;59.050;17.416;2022-10-03T14:00:33;100915.06;;;12.69;88.51
12666;BME280;58531;59.050;17.416;2022-10-03T14:03:20;100908.38;;;12.34;88.42
12666;BME280;58531;59.050;17.416;2022-10-03T14:06:08;100903.47;;;12.11;90.65
12666;BME280;58531;59.050;17.416;2022-10-03T14:08:54;100896.41;;;11.96;91.18
12666;BME280;58531;59.050;17.416;2022-10-03T14:11:26;100895.28;;;11.84;91.63
12666;BME280;58531;59.050;17.416;2022-10-03T14:17:09;100889.81;;;11.67;92.79
12666;BME280;58531;59.050;17.416;2022-10-03T14:19:48;100891.75;;;11.54;92.70
12666;BME280;58531;59.050;17.416;2022-10-03T14:22:27;100895.28;;;11.51;93.43
12666;BME280;58531;59.050;17.416;2022-10-03T14:25:07;100885.03;;;11.49;93.21
12666;BME280;58531;59.050;17.416;2022-10-03T14:27:53;100892.19;;;11.52;92.33
12666;BME280;58531;59.050;17.416;2022-10-03T14:30:26;100894.41;;;11.54;92.08
12666;BME280;58531;59.050;17.416;2022-10-03T14:33:12;100898.28;;;11.53;92.71
12666;BME280;58531;59.050;17.416;2022-10-03T14:35:51;100899.78;;;11.54;91.89
12666;BME280;58531;59.050;17.416;2022-10-03T14:38:29;100886.41;;;11.54;92.37
12666;BME280;58531;59.050;17.416;2022-10-03T14:41:17;100888.69;;;11.43;92.66
12666;BME280;58531;59.050;17.416;2022-10-03T14:43:48;100894.16;;;11.39;92.95
12666;BME280;58531;59.050;17.416;2022-10-03T14:46:18;100887.44;;;11.35;93.34
12666;BME280;58531;59.050;17.416;2022-10-03T14:48:47;100880.94;;;11.23;94.22
12666;BME280;58531;59.050;17.416;2022-10-03T14:51:19;100885.69;;;11.19;94.39
12666;BME280;58531;59.050;17.416;2022-10-03T14:53:55;100874.44;;;11.12;95.64
12666;BME280;58531;59.050;17.416;2022-10-03T14:56:27;100872.63;;;11.09;95.68
12666;BME280;58531;59.050;17.416;2022-10-03T14:58:58;100880.97;;;11.11;96.05
12666;BME280;58531;59.050;17.416;2022-10-03T15:01:27;100874.75;;;11.14;96.30
12666;BME280;58531;59.050;17.416;2022-10-03T15:04:00;100876.50;;;11.08;96.35
12666;BME280;58531;59.050;17.416;2022-10-03T15:06:48;100877.66;;;11.07;96.63
12666;BME280;58531;59.050;17.416;2022-10-03T15:09:22;100875.84;;;11.04;97.90
12666;BME280;58531;59.050;17.416;2022-10-03T15:11:54;100877.88;;;11.00;97.97
12666;BME280;58531;59.050;17.416;2022-10-03T15:14:26;100863.91;;;10.96;98.89
12666;BME280;58531;59.050;17.416;2022-10-03T15:16:57;100875.22;;;11.00;98.79
12666;BME280;58531;59.050;17.416;2022-10-03T15:19:27;100881.19;;;11.04;98.64
12666;BME280;58531;59.050;17.416;2022-10-03T15:22:03;100879.06;;;10.99;98.28
12666;BME280;58531;59.050;17.416;2022-10-03T15:24:33;100879.31;;;10.92;97.94
12666;BME280;58531;59.050;17.416;2022-10-03T15:27:05;100883.38;;;10.84;98.41
12666;BME280;58531;59.050;17.416;2022-10-03T15:29:37;100882.97;;;10.73;98.64
12666;BME280;58531;59.050;17.416;2022-10-03T15:32:06;100887.66;;;10.69;98.89
12666;BME280;58531;59.050;17.416;2022-10-03T15:34:42;100884.88;;;10.60;98.73
12666;BME280;58531;59.050;17.416;2022-10-03T15:37:15;100883.28;;;10.50;99.39
12666;BME280;58531;59.050;17.416;2022-10-03T15:39:45;100891.84;;;10.45;100.00
12666;BME280;58531;59.050;17.416;2022-10-03T15:42:20;100890.22;;;10.35;100.00
12666;BME280;58531;59.050;17.416;2022-10-03T15:44:50;100893.63;;;10.23;100.00
12666;BME280;58531;59.050;17.416;2022-10-03T15:47:20;100887.00;;;10.15;100.00
12666;BME280;58531;59.050;17.416;2022-10-03T15:49:50;100898.69;;;10.05;100.00
12666;BME280;58531;59.050;17.416;2022-10-03T15:52:20;100898.22;;;9.94;100.00
12666;BME280;58531;59.050;17.416;2022-10-03T15:54:54;100902.47;;;9.79;100.00
12666;BME280;58531;59.050;17.416;2022-10-03T15:57:26;100900.91;;;9.66;100.00
12666;BME280;58531;59.050;17.416;2022-10-03T15:59:54;100903.50;;;9.53;100.00
12666;BME280;58531;59.050;17.416;2022-10-03T16:02:29;100903.56;;;9.38;100.00
12666;BME280;58531;59.050;17.416;2022-10-03T16:04:58;100903.91;;;9.24;100.00
12666;BME280;58531;59.050;17.416;2022-10-03T16:07:32;100904.91;;;9.14;100.00
12666;BME280;58531;59.050;17.416;2022-10-03T16:10:12;100896.16;;;8.97;100.00
12666;BME280;58531;59.050;17.416;2022-10-03T16:12:50;100897.25;;;8.84;100.00
12666;BME280;58531;59.050;17.416;2022-10-03T16:15:25;100895.25;;;8.72;100.00
12666;BME280;58531;59.050;17.416;2022-10-03T16:18:04;100897.88;;;8.56;100.00
12666;BME280;58531;59.050;17.416;2022-10-03T16:20:37;100894.34;;;8.43;100.00
12666;BME280;58531;59.050;17.416;2022-10-03T16:23:10;100887.41;;;8.29;100.00
12666;BME280;58531;59.050;17.416;2022-10-03T16:25:45;100891.81;;;8.20;100.00
12666;BME280;58531;59.050;17.416;2022-10-03T16:28:17;100893.75;;;8.16;100.00
12666;BME280;58531;59.050;17.416;2022-10-03T16:30:51;100887.50;;;8.07;100.00
12666;BME280;58531;59.050;17.416;2022-10-03T16:33:22;100886.81;;;8.03;100.00
12666;BME280;58531;59.050;17.416;2022-10-03T16:35:53;100887.34;;;7.94;100.00
12666;BME280;58531;59.050;17.416;2022-10-03T16:38:23;100891.34;;;7.86;100.00
12666;BME280;58531;59.050;17.416;2022-10-03T16:40:59;100895.16;;;7.85;100.00
12666;BME280;58531;59.050;17.416;2022-10-03T16:43:29;100893.34;;;7.79;100.00
12666;BME280;58531;59.050;17.416;2022-10-03T16:45:59;100890.44;;;7.73;100.00
12666;BME280;58531;59.050;17.416;2022-10-03T16:48:29;100887.81;;;7.70;100.00
12666;BME280;58531;59.050;17.416;2022-10-03T16:51:18;100891.31;;;7.67;100.00
12666;BME280;58531;59.050;17.416;2022-10-03T16:53:47;100895.19;;;7.62;100.00